Time;durP1;ratioP1;P1;durP2;ratioP2;P2;SDS_P1;SDS_P2;PMS_P1;PMS_P2;Temp;Humidity;BMP_temperature;BMP_pressure;BME280_temperature;BME280_humidity;BME280_pressure;Samples;Min_cycle;Max_cycle;Signal;HPM_P1;HPM_P2
2022/11/23 00:00:36;;;;;;;7.25;3.60;;;8.00;85.50;;;;;;5053045;28;20123;-16
2022/11/23 00:03:03;;;;;;;6.18;3.88;;;8.00;85.50;;;;;;5052835;28;20044;-16
2022/11/23 00:05:30;;;;;;;6.05;3.85;;;8.00;85.60;;;;;;5052978;28;20098;-16
2022/11/23 00:07:56;;;;;;;6.28;3.22;;;8.00;85.60;;;;;;5053098;28;20029;-17
2022/11/23 00:10:22;;;;;;;5.43;3.35;;;8.00;85.70;;;;;;5052119;28;20025;-17
2022/11/23 00:12:48;;;;;;;4.07;2.80;;;8.00;85.60;;;;;;5051586;28;20032;-16
2022/11/23 00:15:15;;;;;;;7.13;3.70;;;8.00;85.60;;;;;;5053368;28;20040;-17
2022/11/23 00:17:41;;;;;;;5.20;3.33;;;8.00;85.60;;;;;;5053126;28;20029;-14
2022/11/23 00:20:08;;;;;;;6.57;3.65;;;8.10;85.60;;;;;;5052641;28;20443;-14
2022/11/23 00:22:34;;;;;;;5.97;3.90;;;8.00;85.80;;;;;;5052765;28;20028;-13
2022/11/23 00:25:00;;;;;;;5.55;3.58;;;8.00;85.60;;;;;;5053372;28;20112;-16
2022/11/23 00:27:26;;;;;;;4.40;3.10;;;8.00;85.60;;;;;;5057067;28;20120;-16
2022/11/23 00:29:52;;;;;;;5.82;3.15;;;8.10;85.50;;;;;;5056769;28;20028;-17
2022/11/23 00:32:18;;;;;;;4.85;3.15;;;8.10;85.40;;;;;;5057062;28;20013;-16
2022/11/23 00:34:45;;;;;;;4.65;2.72;;;8.10;85.50;;;;;;5057060;28;20031;-16
2022/11/23 00:37:11;;;;;;;3.95;2.70;;;8.10;85.40;;;;;;5056426;28;20020;-16
2022/11/23 00:39:37;;;;;;;4.30;2.60;;;8.10;85.40;;;;;;5056663;28;20024;-15
2022/11/23 00:42:03;;;;;;;4.38;3.05;;;8.10;85.40;;;;;;5056788;28;20024;-13
2022/11/23 00:44:28;;;;;;;5.43;3.10;;;8.20;85.30;;;;;;5056553;28;20116;-14
2022/11/23 00:46:54;;;;;;;5.88;3.15;;;8.10;85.20;;;;;;5056600;28;20116;-15
2022/11/23 00:49:21;;;;;;;4.47;2.60;;;8.20;85.30;;;;;;5056311;28;20400;-15
2022/11/23 00:51:47;;;;;;;4.65;3.08;;;8.10;85.30;;;;;;5056590;28;20123;-16
2022/11/23 00:54:13;;;;;;;5.07;2.95;;;8.10;85.30;;;;;;5056351;28;20021;-15
2022/11/23 00:56:39;;;;;;;4.97;2.80;;;8.10;85.30;;;;;;5056513;28;20032;-14
2022/11/23 00:59:05;;;;;;;4.53;2.92;;;8.10;85.30;;;;;;5056278;28;20029;-16
2022/11/23 01:01:35;;;;;;;4.10;2.65;;;8.10;85.50;;;;;;5056537;28;20029;-16
2022/11/23 01:04:04;;;;;;;4.57;3.00;;;8.00;85.50;;;;;;5056259;28;20021;-16
2022/11/23 01:06:36;;;;;;;3.35;2.47;;;8.00;85.50;;;;;;5056071;28;20048;-14
2022/11/23 01:09:16;;;;;;;4.30;2.75;;;8.10;85.60;;;;;;5056132;28;20041;-15
2022/11/23 01:11:44;;;;;;;2.72;2.20;;;8.00;85.50;;;;;;5056410;28;20044;-17
2022/11/23 01:14:10;;;;;;;5.85;3.22;;;8.00;85.50;;;;;;5056101;28;20092;-14
2022/11/23 01:16:39;;;;;;;4.10;2.65;;;7.90;85.60;;;;;;5055937;28;20033;-14
2022/11/23 01:19:08;;;;;;;4.63;2.60;;;7.90;85.50;;;;;;5055709;28;20100;-15
2022/11/23 01:21:35;;;;;;;5.80;3.20;;;7.90;85.50;;;;;;5055779;28;20049;-15
2022/11/23 01:24:06;;;;;;;5.03;2.90;;;7.90;85.60;;;;;;5055877;28;20441;-16
2022/11/23 01:26:32;;;;;;;3.92;2.80;;;7.80;85.60;;;;;;5056134;28;20025;-14
2022/11/23 01:28:58;;;;;;;3.45;2.58;;;7.80;85.70;;;;;;5055703;28;20067;-15
2022/11/23 01:31:25;;;;;;;3.92;2.58;;;7.80;85.80;;;;;;5055971;28;20434;-16
2022/11/23 01:33:57;;;;;;;6.68;3.53;;;7.70;85.80;;;;;;5055969;28;20033;-15
2022/11/23 01:36:28;;;;;;;4.20;3.00;;;7.70;85.90;;;;;;5055277;28;20575;-15
2022/11/23 01:38:56;;;;;;;6.53;3.60;;;7.60;85.90;;;;;;5055717;28;20056;-15
2022/11/23 01:41:28;;;;;;;5.15;3.50;;;7.70;85.90;;;;;;5055519;28;20056;-16
2022/11/23 01:43:55;;;;;;;5.85;3.25;;;7.60;86.00;;;;;;5056241;28;20040;-15
2022/11/23 01:46:22;;;;;;;5.45;3.75;;;7.60;86.00;;;;;;5055384;28;20025;-16
2022/11/23 01:49:01;;;;;;;9.02;4.78;;;7.60;86.10;;;;;;5053916;28;20123;-15
2022/11/23 01:51:39;;;;;;;5.95;3.47;;;7.50;86.10;;;;;;5055865;28;20333;-14
2022/11/23 01:54:19;;;;;;;7.75;4.10;;;7.50;86.10;;;;;;5055631;28;20385;-16
2022/11/23 01:56:50;;;;;;;6.15;3.67;;;7.50;86.10;;;;;;5055478;28;20037;-15
2022/11/23 01:59:19;;;;;;;6.68;3.75;;;7.50;86.00;;;;;;5055500;28;20037;-15
2022/11/23 02:01:45;;;;;;;7.75;4.00;;;7.40;86.10;;;;;;5055693;28;20032;-16
2022/11/23 02:04:15;;;;;;;7.32;4.25;;;7.40;86.10;;;;;;5054995;28;20025;-14
2022/11/23 02:06:43;;;;;;;5.65;3.83;;;7.40;86.10;;;;;;5055352;28;20020;-15
2022/11/23 02:09:10;;;;;;;7.07;4.32;;;7.40;86.20;;;;;;5233719;22;20146;-19
2022/11/23 02:11:36;;;;;;;7.50;4.38;;;7.40;86.20;;;;;;5132467;22;20136;-16
2022/11/23 02:14:02;;;;;;;8.48;4.05;;;7.30;86.30;;;;;;5217770;22;20140;-16
2022/11/23 02:16:29;;;;;;;6.72;4.45;;;7.30;86.30;;;;;;5054969;28;20021;-15
2022/11/23 02:18:55;;;;;;;5.78;4.13;;;7.30;86.40;;;;;;5054900;28;20064;-14
2022/11/23 02:21:21;;;;;;;7.32;4.93;;;7.30;86.40;;;;;;5055146;28;20021;-15
2022/11/23 02:23:53;;;;;;;7.78;5.00;;;7.30;86.40;;;;;;5135103;22;20059;-20
2022/11/23 02:26:46;;;;;;;7.38;4.70;;;7.30;86.40;;;;;;5094839;28;20024;-18
2022/11/23 02:29:14;;;;;;;8.32;4.88;;;7.40;86.40;;;;;;5090256;28;20047;-20
2022/11/23 02:31:40;;;;;;;8.30;5.38;;;7.40;86.40;;;;;;5149109;22;20052;-15
2022/11/23 02:34:07;;;;;;;7.78;5.10;;;7.40;86.40;;;;;;5095082;28;20031;-15
2022/11/23 02:36:37;;;;;;;8.63;5.32;;;7.40;86.40;;;;;;5094695;28;20028;-15
2022/11/23 02:39:09;;;;;;;9.18;5.20;;;7.40;86.40;;;;;;5094437;28;20474;-16
2022/11/23 02:41:44;;;;;;;8.75;5.38;;;7.40;86.40;;;;;;5094595;28;20497;-16
2022/11/23 02:44:48;;;;;;;10.40;5.45;;;7.40;86.40;;;;;;5339244;22;20051;-16
2022/11/23 02:47:14;;;;;;;7.72;4.90;;;7.40;86.40;;;;;;5074093;28;20432;-19
2022/11/23 02:49:44;;;;;;;8.38;4.93;;;7.40;86.30;;;;;;5141747;22;20080;-15
2022/11/23 02:52:14;;;;;;;7.80;4.88;;;7.40;86.30;;;;;;5094769;28;20016;-15
2022/11/23 02:54:40;;;;;;;8.43;5.00;;;7.40;86.30;;;;;;5094347;28;20073;-14
2022/11/23 02:57:07;;;;;;;6.72;4.63;;;7.40;86.30;;;;;;5094080;28;20036;-15
2022/11/23 02:59:33;;;;;;;7.30;4.22;;;7.40;86.30;;;;;;5094221;28;20062;-14
2022/11/23 03:02:00;;;;;;;7.60;4.97;;;7.40;86.30;;;;;;5094209;28;20036;-15
2022/11/23 03:04:26;;;;;;;9.70;5.30;;;7.40;86.30;;;;;;5094402;28;20027;-17
2022/11/23 03:06:52;;;;;;;7.53;4.57;;;7.40;86.40;;;;;;5094189;28;20024;-16
2022/11/23 03:09:18;;;;;;;8.88;5.13;;;7.40;86.40;;;;;;5093795;28;20125;-15
2022/11/23 03:14:16;;;;;;;7.97;5.00;;;7.40;86.30;;;;;;5049538;28;20064;-20
2022/11/23 03:16:42;;;;;;;7.70;5.15;;;7.40;86.30;;;;;;5053769;28;20025;-19
2022/11/23 03:19:08;;;;;;;7.93;4.88;;;7.50;86.30;;;;;;5128432;22;20460;-15
2022/11/23 03:21:35;;;;;;;8.88;5.68;;;7.50;86.20;;;;;;5094233;28;20016;-15
2022/11/23 03:24:01;;;;;;;8.60;5.03;;;7.40;86.30;;;;;;5094123;28;20045;-16
2022/11/23 03:26:27;;;;;;;9.85;5.50;;;7.40;86.30;;;;;;5093772;28;20040;-17
2022/11/23 03:28:53;;;;;;;9.80;5.85;;;7.50;86.30;;;;;;5093561;28;20032;-15
2022/11/23 03:31:19;;;;;;;7.95;5.20;;;7.40;86.30;;;;;;5093590;28;20088;-15
2022/11/23 03:33:45;;;;;;;9.55;5.47;;;7.40;86.30;;;;;;5093903;28;20028;-15
2022/11/23 03:36:11;;;;;;;14.10;5.60;;;7.40;86.40;;;;;;5093762;28;20033;-15
2022/11/23 03:38:37;;;;;;;9.50;5.32;;;7.40;86.30;;;;;;5093574;28;20152;-15
2022/11/23 03:41:03;;;;;;;8.45;5.50;;;7.40;86.30;;;;;;5339044;22;20084;-17
2022/11/23 03:43:29;;;;;;;9.70;5.72;;;7.40;86.20;;;;;;5139180;22;20059;-15
2022/11/23 03:45:55;;;;;;;10.00;6.05;;;7.40;86.20;;;;;;5093720;28;20028;-15
2022/11/23 03:48:21;;;;;;;8.65;5.88;;;7.30;86.20;;;;;;5093772;28;20118;-17
2022/11/23 03:50:47;;;;;;;11.27;6.10;;;7.40;86.30;;;;;;5093176;28;20479;-17
2022/11/23 03:53:13;;;;;;;10.38;5.88;;;7.30;86.30;;;;;;5093352;28;20069;-17
2022/11/23 03:55:39;;;;;;;10.27;6.25;;;7.40;86.30;;;;;;5093318;28;20029;-15
2022/11/23 03:58:05;;;;;;;11.77;6.90;;;7.30;86.40;;;;;;5093133;28;20020;-17
2022/11/23 04:00:31;;;;;;;11.50;6.63;;;7.30;86.40;;;;;;5091739;28;20020;-15
2022/11/23 04:02:57;;;;;;;11.43;7.15;;;7.30;86.40;;;;;;5093326;28;20028;-15
2022/11/23 04:05:24;;;;;;;10.77;6.15;;;7.30;86.40;;;;;;5075209;28;20185;-16
2022/11/23 04:07:50;;;;;;;12.70;7.13;;;7.40;86.40;;;;;;5093198;28;20024;-16
2022/11/23 04:10:18;;;;;;;12.25;7.00;;;7.30;86.40;;;;;;5093311;28;20070;-17
2022/11/23 04:12:45;;;;;;;11.60;7.15;;;7.30;86.40;;;;;;5093376;28;20020;-15
2022/11/23 04:15:11;;;;;;;11.18;6.20;;;7.30;86.40;;;;;;5092839;28;20028;-16
2022/11/23 04:17:37;;;;;;;12.80;7.03;;;7.30;86.40;;;;;;5093050;28;20021;-15
2022/11/23 04:20:04;;;;;;;12.10;7.50;;;7.30;86.40;;;;;;5093001;28;20031;-15
2022/11/23 04:22:30;;;;;;;11.27;7.30;;;7.30;86.40;;;;;;5092978;28;20059;-15
2022/11/23 04:24:56;;;;;;;10.05;6.72;;;7.30;86.40;;;;;;5092766;28;20052;-17
2022/11/23 04:27:22;;;;;;;10.98;7.18;;;7.20;86.30;;;;;;5092918;28;20056;-16
2022/11/23 04:29:48;;;;;;;11.38;6.85;;;7.30;86.40;;;;;;5093165;28;20031;-16
2022/11/23 04:32:14;;;;;;;12.20;6.80;;;7.20;86.40;;;;;;5092927;28;20032;-15
2022/11/23 04:34:40;;;;;;;12.52;7.80;;;7.20;86.40;;;;;;5091673;28;20490;-17
2022/11/23 04:37:06;;;;;;;10.73;7.20;;;7.20;86.40;;;;;;5092640;28;20032;-15
2022/11/23 04:39:32;;;;;;;10.32;6.45;;;7.20;86.40;;;;;;5092905;28;20027;-14
2022/11/23 04:41:58;;;;;;;11.57;6.63;;;7.20;86.40;;;;;;5093059;28;20056;-15
2022/11/23 04:44:23;;;;;;;11.98;6.60;;;7.20;86.50;;;;;;5091310;28;20519;-16
2022/11/23 04:46:49;;;;;;;11.30;7.47;;;7.20;86.50;;;;;;5093008;28;20040;-16
2022/11/23 04:49:16;;;;;;;11.95;7.13;;;7.20;86.50;;;;;;5093009;28;20036;-15
2022/11/23 04:51:42;;;;;;;8.80;5.22;;;7.10;86.50;;;;;;5093263;28;20039;-14
2022/11/23 04:54:08;;;;;;;9.98;6.22;;;7.20;86.50;;;;;;5093363;28;20024;-15
2022/11/23 04:56:34;;;;;;;10.00;6.00;;;7.10;86.50;;;;;;5092727;28;20020;-15
2022/11/23 04:59:00;;;;;;;11.85;6.63;;;7.00;86.50;;;;;;5092480;28;20052;-15
2022/11/23 05:01:26;;;;;;;9.98;5.82;;;7.00;86.50;;;;;;5093041;28;20335;-16
2022/11/23 05:03:52;;;;;;;7.18;4.65;;;7.00;86.50;;;;;;5092574;28;20024;-15
2022/11/23 05:06:18;;;;;;;8.18;4.85;;;7.00;86.50;;;;;;5092596;28;20031;-15
2022/11/23 05:08:44;;;;;;;10.90;6.57;;;6.90;86.60;;;;;;5092768;28;20024;-14
2022/11/23 05:11:10;;;;;;;10.85;6.38;;;6.90;86.60;;;;;;5092355;28;20028;-16
2022/11/23 05:13:35;;;;;;;10.25;6.38;;;6.90;86.70;;;;;;5095655;28;20126;-14
2022/11/23 05:16:01;;;;;;;8.05;5.50;;;6.90;86.70;;;;;;5096565;28;20016;-16
2022/11/23 05:18:27;;;;;;;7.07;4.70;;;6.90;86.70;;;;;;5096536;28;20055;-15
2022/11/23 05:20:53;;;;;;;8.25;5.40;;;6.90;86.70;;;;;;5096285;28;20379;-15
2022/11/23 05:23:19;;;;;;;7.65;4.78;;;6.90;86.70;;;;;;5096323;28;20028;-16
2022/11/23 05:25:45;;;;;;;8.27;5.55;;;6.80;86.70;;;;;;5096078;28;20031;-15
2022/11/23 05:28:16;;;;;;;10.15;5.05;;;6.80;86.70;;;;;;5096327;28;20110;-14
2022/11/23 05:30:42;;;;;;;10.05;5.93;;;6.80;86.80;;;;;;5096320;28;20570;-15
2022/11/23 05:33:08;;;;;;;8.68;5.10;;;6.80;86.80;;;;;;5095713;28;20107;-16
2022/11/23 05:35:34;;;;;;;8.80;5.47;;;6.90;86.80;;;;;;5095838;28;20020;-15
2022/11/23 05:38:00;;;;;;;12.90;6.72;;;6.90;86.80;;;;;;5095944;28;20103;-15
2022/11/23 05:40:26;;;;;;;9.50;6.20;;;6.90;86.80;;;;;;5095889;28;20039;-16
2022/11/23 05:42:56;;;;;;;12.20;7.35;;;6.90;86.80;;;;;;5095516;28;20047;-14
2022/11/23 05:45:24;;;;;;;10.02;6.70;;;6.90;86.80;;;;;;5095755;28;20043;-15
2022/11/23 05:47:54;;;;;;;15.07;7.20;;;6.90;86.70;;;;;;5095820;28;20020;-14
2022/11/23 05:50:23;;;;;;;13.50;7.43;;;6.90;86.70;;;;;;5095579;28;20485;-17
2022/11/23 05:52:48;;;;;;;9.63;6.13;;;6.90;86.60;;;;;;5094104;28;20107;-14
2022/11/23 05:55:15;;;;;;;8.65;5.72;;;6.80;86.60;;;;;;5095963;28;20128;-15
2022/11/23 05:57:41;;;;;;;9.75;5.95;;;6.80;86.60;;;;;;5095709;28;20078;-17
2022/11/23 06:00:09;;;;;;;8.85;5.93;;;6.80;86.60;;;;;;5095412;28;20020;-17
2022/11/23 06:02:37;;;;;;;8.77;5.93;;;6.80;86.60;;;;;;5095304;28;20023;-15
2022/11/23 06:05:03;;;;;;;10.15;7.03;;;6.70;86.60;;;;;;5095694;28;20031;-15
2022/11/23 06:07:32;;;;;;;11.85;7.65;;;6.70;86.60;;;;;;5095525;28;20057;-17
2022/11/23 06:09:59;;;;;;;11.07;7.55;;;6.60;86.60;;;;;;5095240;28;20032;-17
2022/11/23 06:12:27;;;;;;;12.82;7.13;;;6.60;86.60;;;;;;5095061;28;20108;-15
2022/11/23 06:14:53;;;;;;;8.32;5.53;;;6.50;86.60;;;;;;5094935;28;20024;-15
2022/11/23 06:17:19;;;;;;;6.07;4.32;;;6.50;86.70;;;;;;5095454;28;20035;-17
2022/11/23 06:19:45;;;;;;;5.72;4.15;;;6.50;86.70;;;;;;5095018;28;20039;-16
2022/11/23 06:22:37;;;;;;;11.85;7.32;;;6.40;86.70;;;;;;5089329;27;20952;-12
2022/11/23 06:25:03;;;;;;;14.23;6.82;;;6.40;86.70;;;;;;5090294;28;20032;-12
2022/11/23 06:27:29;;;;;;;15.10;9.85;;;6.40;86.70;;;;;;5090292;28;20025;-12
2022/11/23 06:29:55;;;;;;;21.35;12.75;;;6.30;86.60;;;;;;5089173;28;20086;-12
2022/11/23 06:32:21;;;;;;;51.47;25.73;;;6.20;86.60;;;;;;5090611;28;20073;-12
2022/11/23 06:34:47;;;;;;;28.85;17.02;;;6.10;86.60;;;;;;5088852;28;20449;-13
2022/11/23 06:37:13;;;;;;;32.35;17.77;;;6.10;86.80;;;;;;5090274;28;20103;-13
2022/11/23 06:39:39;;;;;;;33.83;18.35;;;6.10;86.80;;;;;;5090551;28;20056;-12
2022/11/23 06:42:05;;;;;;;32.13;18.05;;;6.00;86.80;;;;;;5090287;28;20021;-12
2022/11/23 06:44:31;;;;;;;26.98;15.15;;;5.90;86.90;;;;;;5090096;28;20491;-11
2022/11/23 06:46:57;;;;;;;29.63;18.35;;;5.90;86.90;;;;;;5089888;28;20028;-12
2022/11/23 06:49:24;;;;;;;24.90;16.45;;;5.90;87.00;;;;;;5090368;28;20036;-12
2022/11/23 06:51:50;;;;;;;23.67;15.43;;;5.90;87.10;;;;;;5090519;28;20039;-12
2022/11/23 06:54:16;;;;;;;26.17;18.05;;;6.00;87.20;;;;;;5088742;28;20495;-12
2022/11/23 06:56:42;;;;;;;30.95;20.52;;;6.00;87.20;;;;;;5090028;28;20475;-12
2022/11/23 06:59:08;;;;;;;29.88;21.65;;;6.00;87.20;;;;;;5089566;28;20391;-12
2022/11/23 07:01:34;;;;;;;30.98;21.05;;;6.10;87.20;;;;;;5090175;28;20544;-11
2022/11/23 07:04:00;;;;;;;30.70;20.75;;;6.10;87.10;;;;;;5089714;28;20522;-12
2022/11/23 07:06:25;;;;;;;30.65;21.30;;;6.20;87.10;;;;;;5089641;28;20062;-11
2022/11/23 07:08:56;;;;;;;30.55;20.50;;;6.20;87.00;;;;;;5088189;28;20025;-13
2022/11/23 07:11:22;;;;;;;27.08;18.77;;;6.30;86.90;;;;;;5089627;28;20130;-12
2022/11/23 07:13:48;;;;;;;26.75;16.63;;;6.40;86.90;;;;;;5089445;28;20054;-13
2022/11/23 07:16:13;;;;;;;24.88;16.38;;;6.50;86.80;;;;;;5089481;28;20051;-11
2022/11/23 07:18:39;;;;;;;25.05;16.85;;;6.60;86.70;;;;;;5089793;28;20060;-12
2022/11/23 07:21:05;;;;;;;26.58;16.70;;;6.70;86.60;;;;;;5087772;28;20496;-11
2022/11/23 07:23:31;;;;;;;25.67;16.60;;;6.80;86.50;;;;;;5089272;28;20092;-14
2022/11/23 07:25:57;;;;;;;27.38;17.33;;;6.90;86.30;;;;;;5089323;28;20028;-12
2022/11/23 07:28:22;;;;;;;28.75;17.15;;;7.00;86.10;;;;;;5089212;28;20020;-12
2022/11/23 07:30:50;;;;;;;24.52;17.20;;;7.10;86.00;;;;;;5089328;28;20024;-12
2022/11/23 07:33:16;;;;;;;23.70;16.80;;;7.10;85.80;;;;;;5079562;28;20054;-12
2022/11/23 07:35:42;;;;;;;24.23;16.83;;;7.10;85.60;;;;;;5075684;28;20031;-12
2022/11/23 07:38:08;;;;;;;25.58;15.45;;;7.20;85.70;;;;;;5076032;28;20029;-12
2022/11/23 07:40:38;;;;;;;25.25;16.27;;;7.30;85.60;;;;;;5075744;28;20086;-12
2022/11/23 07:43:05;;;;;;;26.15;16.63;;;7.30;85.50;;;;;;5210258;22;20091;-19
2022/11/23 07:45:32;;;;;;;31.90;18.95;;;7.40;85.30;;;;;;5087409;22;20084;-16
2022/11/23 07:48:04;;;;;;;31.05;17.27;;;7.40;85.50;;;;;;5035619;28;20030;-14
2022/11/23 07:50:30;;;;;;;25.75;16.77;;;7.50;85.40;;;;;;5035822;28;20021;-14
2022/11/23 07:52:56;;;;;;;22.48;13.27;;;7.50;85.50;;;;;;5035225;28;20037;-15
2022/11/23 07:55:23;;;;;;;20.33;13.13;;;7.60;85.20;;;;;;5035362;28;20172;-16
2022/11/23 07:57:53;;;;;;;21.80;13.73;;;7.70;85.10;;;;;;5035350;28;20032;-15
2022/11/23 08:00:24;;;;;;;25.88;15.57;;;7.70;85.10;;;;;;5035130;28;20105;-14
2022/11/23 08:02:50;;;;;;;20.13;13.68;;;7.80;85.00;;;;;;5035056;28;20120;-14
2022/11/23 08:05:16;;;;;;;17.25;11.82;;;7.90;84.90;;;;;;5109498;22;20061;-16
2022/11/23 08:07:43;;;;;;;16.00;10.25;;;7.90;84.70;;;;;;5015340;28;20022;-17
2022/11/23 08:10:11;;;;;;;16.00;10.70;;;7.90;84.60;;;;;;5015222;28;20022;-16
2022/11/23 08:12:38;;;;;;;17.13;11.57;;;8.00;84.30;;;;;;5015376;28;20025;-16
2022/11/23 08:15:05;;;;;;;14.23;9.90;;;8.10;84.30;;;;;;5015270;28;20022;-16
2022/11/23 08:17:32;;;;;;;15.70;9.98;;;8.10;84.00;;;;;;5015764;28;20034;-16
2022/11/23 08:19:58;;;;;;;16.45;10.32;;;8.20;83.70;;;;;;5015133;28;20079;-16
2022/11/23 08:22:25;;;;;;;15.95;9.88;;;8.20;83.20;;;;;;5015293;28;20030;-16
2022/11/23 08:24:52;;;;;;;17.67;11.10;;;8.30;83.20;;;;;;5014702;28;20099;-17
2022/11/23 08:27:18;;;;;;;16.65;10.50;;;8.40;83.20;;;;;;5015211;28;20030;-16
2022/11/23 08:29:44;;;;;;;19.25;11.48;;;8.50;83.10;;;;;;5014852;28;20374;-16
2022/11/23 08:32:11;;;;;;;21.85;12.90;;;8.60;82.50;;;;;;5014844;28;20030;-16
2022/11/23 08:34:37;;;;;;;17.35;10.52;;;8.80;82.20;;;;;;5014697;28;20033;-16
2022/11/23 08:37:03;;;;;;;18.38;10.98;;;8.90;81.90;;;;;;5014457;28;20029;-16
2022/11/23 08:39:29;;;;;;;18.35;11.75;;;9.00;81.50;;;;;;5014677;28;20470;-16
2022/11/23 08:41:55;;;;;;;19.70;12.48;;;9.20;81.40;;;;;;5014579;28;20071;-16
2022/11/23 08:44:21;;;;;;;17.67;11.70;;;9.40;81.50;;;;;;5013568;28;20132;-16
2022/11/23 08:46:47;;;;;;;17.80;11.70;;;9.50;81.50;;;;;;5067165;23;20060;-15
2022/11/23 08:49:13;;;;;;;17.10;10.98;;;9.70;81.70;;;;;;5014549;28;20157;-14
2022/11/23 08:51:39;;;;;;;16.60;11.13;;;10.00;81.80;;;;;;5014516;28;20022;-16
2022/11/23 08:54:04;;;;;;;17.30;11.20;;;10.40;81.50;;;;;;5142461;22;20041;-14
2022/11/23 08:56:30;;;;;;;16.58;11.02;;;10.60;80.50;;;;;;5015025;28;20026;-16
2022/11/23 08:58:56;;;;;;;18.73;12.18;;;10.80;79.70;;;;;;5012919;28;20037;-15
2022/11/23 09:01:22;;;;;;;18.30;11.63;;;10.80;79.30;;;;;;5013475;28;20030;-15
2022/11/23 09:03:48;;;;;;;17.65;11.00;;;10.80;79.40;;;;;;5014630;28;20022;-15
2022/11/23 09:06:14;;;;;;;15.70;10.30;;;10.80;79.40;;;;;;5014274;28;20026;-15
2022/11/23 09:08:40;;;;;;;18.45;10.75;;;10.80;79.40;;;;;;5014100;28;20026;-14
2022/11/23 09:11:07;;;;;;;15.25;9.98;;;10.80;79.30;;;;;;5013928;28;20034;-14
2022/11/23 09:13:37;;;;;;;15.18;9.50;;;10.80;79.30;;;;;;5014398;28;20022;-14
2022/11/23 09:16:04;;;;;;;14.20;9.13;;;10.80;78.30;;;;;;5014026;28;20026;-12
2022/11/23 09:18:32;;;;;;;15.73;9.27;;;10.90;78.40;;;;;;5014059;28;20393;-14
2022/11/23 09:21:00;;;;;;;12.68;8.52;;;11.00;77.50;;;;;;5013692;28;20477;-13
2022/11/23 09:23:26;;;;;;;15.27;8.18;;;11.20;77.60;;;;;;5014193;28;20018;-15
2022/11/23 09:25:53;;;;;;;14.43;7.45;;;11.30;76.70;;;;;;5013545;28;20024;-13
2022/11/23 09:28:19;;;;;;;12.20;7.40;;;11.40;76.70;;;;;;5013852;28;20109;-14
2022/11/23 09:30:48;;;;;;;13.10;7.47;;;11.60;76.30;;;;;;5014187;28;20018;-16
2022/11/23 09:33:13;;;;;;;12.80;8.07;;;11.70;75.30;;;;;;5014301;28;20117;-14
2022/11/23 09:35:40;;;;;;;13.18;8.18;;;11.80;74.10;;;;;;5014334;28;20100;-12
2022/11/23 09:38:05;;;;;;;12.25;7.97;;;11.80;74.10;;;;;;5013634;28;20588;-15
2022/11/23 09:40:40;;;;;;;10.85;7.40;;;11.70;74.40;;;;;;5013469;28;20116;-15
2022/11/23 09:43:32;;;;;;;13.18;8.18;;;11.80;74.70;;;;;;5012186;28;20030;-15
2022/11/23 09:46:07;;;;;;;13.27;7.13;;;11.90;74.50;;;;;;5013543;28;20065;-14
2022/11/23 09:48:53;;;;;;;13.55;7.88;;;12.10;75.10;;;;;;5013685;28;20396;-15
2022/11/23 09:51:21;;;;;;;11.40;6.60;;;12.30;74.50;;;;;;5013844;28;20037;-14
2022/11/23 09:54:04;;;;;;;11.05;6.95;;;12.60;73.30;;;;;;5013137;28;20547;-14
2022/11/23 09:56:35;;;;;;;10.15;6.78;;;12.80;71.80;;;;;;5013553;28;20029;-14
2022/11/23 09:59:11;;;;;;;12.93;8.18;;;12.90;72.10;;;;;;5013196;28;20105;-14
2022/11/23 10:01:37;;;;;;;12.77;7.88;;;13.10;69.80;;;;;;5013374;28;20026;-16
2022/11/23 10:04:04;;;;;;;19.10;10.98;;;13.20;71.30;;;;;;5013662;28;20103;-17
2022/11/23 10:06:36;;;;;;;13.18;7.75;;;13.40;70.70;;;;;;5012077;28;20485;-15
2022/11/23 10:09:34;;;;;;;11.88;7.57;;;13.50;69.90;;;;;;5013084;28;20034;-14
2022/11/23 10:12:20;;;;;;;10.60;6.65;;;13.60;69.30;;;;;;5013243;28;20397;-13
2022/11/23 10:15:10;;;;;;;16.00;7.18;;;13.80;69.60;;;;;;5013270;28;20101;-15
2022/11/23 10:17:47;;;;;;;12.43;6.88;;;13.90;69.30;;;;;;5013651;28;20040;-17
2022/11/23 10:20:34;;;;;;;10.63;6.90;;;14.00;68.30;;;;;;5013172;28;20037;-15
2022/11/23 10:23:03;;;;;;;10.68;6.07;;;14.10;68.10;;;;;;5012823;28;20041;-14
2022/11/23 10:25:52;;;;;;;10.15;7.13;;;14.00;66.00;;;;;;5013063;28;20485;-17
2022/11/23 10:28:21;;;;;;;9.30;6.20;;;13.90;67.60;;;;;;5005282;28;20034;-15
2022/11/23 10:31:03;;;;;;;9.68;6.47;;;13.90;68.30;;;;;;5013011;28;20026;-15
2022/11/23 10:33:41;;;;;;;9.75;6.15;;;13.80;67.90;;;;;;5013018;28;20027;-14
2022/11/23 10:36:10;;;;;;;9.65;5.90;;;13.80;68.30;;;;;;5013260;28;20034;-14
2022/11/23 10:38:36;;;;;;;9.00;6.05;;;13.90;68.10;;;;;;5013102;28;20018;-13
2022/11/23 10:41:15;;;;;;;8.90;5.70;;;14.00;67.80;;;;;;5012767;28;20029;-14
2022/11/23 10:44:11;;;;;;;9.27;5.72;;;14.10;68.10;;;;;;5012899;28;20144;-14
2022/11/23 10:46:40;;;;;;;10.32;6.07;;;14.30;67.60;;;;;;5013300;28;20053;-13
2022/11/23 10:49:18;;;;;;;8.30;5.35;;;14.80;67.90;;;;;;5012850;28;20040;-14
2022/11/23 10:51:59;;;;;;;8.52;4.90;;;15.10;65.90;;;;;;5012967;28;20467;-15
2022/11/23 10:54:52;;;;;;;8.85;4.85;;;15.50;65.30;;;;;;5012846;28;20081;-14
2022/11/23 10:57:42;;;;;;;9.00;5.13;;;15.90;64.60;;;;;;5007243;28;20038;-14
2022/11/23 11:00:14;;;;;;;12.75;5.22;;;16.20;63.70;;;;;;5013119;28;20061;-14
2022/11/23 11:02:53;;;;;;;8.00;4.73;;;16.50;62.30;;;;;;5012744;28;20088;-14
2022/11/23 11:05:34;;;;;;;7.70;4.35;;;16.80;62.20;;;;;;5012803;28;20095;-16
2022/11/23 11:08:03;;;;;;;7.53;4.85;;;17.00;61.10;;;;;;5014032;28;20030;-14
2022/11/23 11:10:38;;;;;;;7.50;4.63;;;17.30;60.40;;;;;;5016552;28;20076;-15
2022/11/23 11:13:22;;;;;;;8.48;4.88;;;17.40;60.70;;;;;;5016302;28;20026;-14
2022/11/23 11:16:02;;;;;;;9.13;5.25;;;17.70;59.00;;;;;;5016720;28;20040;-15
2022/11/23 11:18:37;;;;;;;11.77;6.15;;;17.90;58.60;;;;;;5015389;28;20026;-14
2022/11/23 11:21:06;;;;;;;9.63;5.50;;;18.10;57.90;;;;;;5016040;28;20034;-14
2022/11/23 11:23:38;;;;;;;9.90;5.53;;;18.20;57.00;;;;;;5016139;28;20034;-14
2022/11/23 11:26:22;;;;;;;8.40;4.47;;;18.40;56.20;;;;;;5016526;28;20057;-14
2022/11/23 11:28:54;;;;;;;8.60;4.78;;;18.50;55.80;;;;;;5016249;28;20165;-15
2022/11/23 11:31:44;;;;;;;6.65;3.97;;;18.60;54.00;;;;;;5016128;28;20087;-15
2022/11/23 11:34:17;;;;;;;7.00;3.70;;;18.70;54.60;;;;;;5016373;28;20044;-14
2022/11/23 11:37:08;;;;;;;5.30;3.83;;;18.80;55.20;;;;;;5016319;28;20030;-16
2022/11/23 11:39:43;;;;;;;6.50;3.60;;;18.90;55.00;;;;;;5008140;28;20069;-14
2022/11/23 11:42:19;;;;;;;6.80;3.40;;;18.80;54.10;;;;;;5016385;28;20124;-14
2022/11/23 11:44:48;;;;;;;4.75;3.40;;;18.90;54.50;;;;;;5015762;28;20053;-14
2022/11/23 11:47:46;;;;;;;12.15;6.07;;;18.90;52.50;;;;;;5015788;28;20029;-14
2022/11/23 11:50:22;;;;;;;5.35;3.15;;;19.00;53.10;;;;;;5012963;28;20497;-17
2022/11/23 11:52:54;;;;;;;10.05;4.53;;;19.10;50.60;;;;;;5015472;28;20045;-17
2022/11/23 11:55:42;;;;;;;8.82;3.83;;;19.20;51.60;;;;;;5015683;28;20048;-14
2022/11/23 11:58:14;;;;;;;5.93;3.08;;;19.10;50.50;;;;;;5015596;28;20033;-16
2022/11/23 12:00:48;;;;;;;5.28;2.67;;;18.90;48.30;;;;;;5014288;28;20084;-15
2022/11/23 12:03:22;;;;;;;5.00;2.75;;;18.80;47.70;;;;;;5015421;28;20084;-15
2022/11/23 12:05:52;;;;;;;;;;;18.60;48.10;;;;;;5016321;28;20040;-15
2022/11/23 12:08:24;;;;;;;5.00;2.50;;;18.40;47.70;;;;;;5015168;28;20288;-15
2022/11/23 12:10:56;;;;;;;3.45;1.85;;;18.10;49.80;;;;;;5015354;28;20121;-14
2022/11/23 12:13:24;;;;;;;1.42;1.33;;;18.00;51.20;;;;;;5015396;28;20026;-15
2022/11/23 12:16:23;;;;;;;2.40;1.80;;;18.00;51.70;;;;;;5014030;28;20026;-15
2022/11/23 12:19:12;;;;;;;2.42;1.50;;;18.20;51.50;;;;;;5009545;28;20036;-14
2022/11/23 12:22:13;;;;;;;2.70;1.63;;;18.40;49.40;;;;;;5015102;28;20108;-15
2022/11/23 12:25:14;;;;;;;1.48;1.30;;;18.40;48.30;;;;;;5015693;28;20028;-14
2022/11/23 12:28:23;;;;;;;2.13;1.38;;;18.20;48.90;;;;;;5012273;28;20029;-16
2022/11/23 12:31:09;;;;;;;1.58;1.38;;;17.90;49.50;;;;;;5013505;28;20456;-14
2022/11/23 12:34:01;;;;;;;2.50;2.03;;;17.70;49.80;;;;;;5015206;28;20121;-14
2022/11/23 12:36:33;;;;;;;3.05;2.15;;;17.60;50.00;;;;;;5015210;28;20025;-17
2022/11/23 12:39:05;;;;;;;5.05;3.30;;;17.70;50.40;;;;;;5014711;28;20113;-14
2022/11/23 12:41:55;;;;;;;5.43;2.90;;;17.90;48.90;;;;;;5014596;28;20045;-14
2022/11/23 12:44:21;;;;;;;8.30;3.63;;;17.90;49.00;;;;;;5015085;28;20389;-15
2022/11/23 12:46:46;;;;;;;5.63;3.20;;;18.10;49.70;;;;;;5014555;28;20030;-16
2022/11/23 12:49:31;;;;;;;4.63;2.25;;;18.30;49.90;;;;;;5014755;28;20027;-14
2022/11/23 12:52:40;;;;;;;3.63;2.33;;;18.50;48.80;;;;;;5014932;28;20496;-14
2022/11/23 12:55:23;;;;;;;4.18;2.40;;;18.60;47.70;;;;;;4953727;29;20059;-14
2022/11/23 12:58:21;;;;;;;3.90;2.78;;;18.70;47.50;;;;;;4954173;29;20043;-15
2022/11/23 13:01:08;;;;;;;3.83;2.67;;;18.80;46.50;;;;;;4878259;29;20037;-16
2022/11/23 13:03:40;;;;;;;4.47;2.45;;;18.70;46.10;;;;;;4878640;29;20041;-14
2022/11/23 13:06:06;;;;;;;2.45;2.10;;;18.60;46.90;;;;;;4878278;29;20029;-14